Terminal Aerodrome Forecast
Issued by NWS

Home | Current Version | Previous Version | Text Only | Print | Product List | Glossary On
Versions: 1 2 3 4 5 6 7 8 9 10 11 12 13 14
000
FTUS46 KMTR 251700
TAFSJC
TAF
KSJC 251736Z 2518/2618 13010KT P6SM VCSH SCT020 BKN050
     FM252300 26010KT P6SM SCT250
     FM260400 VRB03KT P6SM SKC
     FM261200 00000KT P6SM SKC=

USA.gov is the U.S. government's official web portal to all federal, state and local government web resources and services.